sensor_id;sensor_type;location;lat;lon;timestamp;P1;durP1;ratioP1;P2;durP2;ratioP2
68940;SDS011;55982;51.476;7.552;2023-07-13T00:01:43;7.30;;;2.35;;
68940;SDS011;55982;51.476;7.552;2023-07-13T00:04:08;8.65;;;2.20;;
68940;SDS011;55982;51.476;7.552;2023-07-13T00:06:34;3.55;;;1.65;;
68940;SDS011;55982;51.476;7.552;2023-07-13T00:09:00;7.78;;;2.40;;
68940;SDS011;55982;51.476;7.552;2023-07-13T00:11:26;8.43;;;1.88;;
68940;SDS011;55982;51.476;7.552;2023-07-13T00:13:52;8.55;;;2.38;;
68940;SDS011;55982;51.476;7.552;2023-07-13T00:16:18;7.88;;;1.55;;
68940;SDS011;55982;51.476;7.552;2023-07-13T00:18:44;5.35;;;1.40;;
68940;SDS011;55982;51.476;7.552;2023-07-13T00:21:09;7.57;;;1.92;;
68940;SDS011;55982;51.476;7.552;2023-07-13T00:23:35;5.93;;;2.10;;
68940;SDS011;55982;51.476;7.552;2023-07-13T00:26:03;6.38;;;2.17;;
68940;SDS011;55982;51.476;7.552;2023-07-13T00:28:29;6.00;;;2.08;;
68940;SDS011;55982;51.476;7.552;2023-07-13T00:30:55;5.75;;;2.00;;
68940;SDS011;55982;51.476;7.552;2023-07-13T00:33:20;9.68;;;2.60;;
68940;SDS011;55982;51.476;7.552;2023-07-13T00:35:46;8.25;;;2.20;;
68940;SDS011;55982;51.476;7.552;2023-07-13T00:38:11;7.32;;;2.10;;
68940;SDS011;55982;51.476;7.552;2023-07-13T00:40:37;4.40;;;1.77;;
68940;SDS011;55982;51.476;7.552;2023-07-13T00:43:04;6.35;;;2.10;;
68940;SDS011;55982;51.476;7.552;2023-07-13T00:48:01;10.48;;;2.28;;
68940;SDS011;55982;51.476;7.552;2023-07-13T00:50:26;5.53;;;2.05;;
68940;SDS011;55982;51.476;7.552;2023-07-13T00:52:53;12.77;;;2.38;;
68940;SDS011;55982;51.476;7.552;2023-07-13T00:55:20;11.10;;;2.05;;
68940;SDS011;55982;51.476;7.552;2023-07-13T00:57:46;7.15;;;1.92;;
68940;SDS011;55982;51.476;7.552;2023-07-13T01:00:12;7.10;;;2.08;;
68940;SDS011;55982;51.476;7.552;2023-07-13T01:02:39;5.28;;;1.83;;
68940;SDS011;55982;51.476;7.552;2023-07-13T01:05:10;7.43;;;1.92;;
68940;SDS011;55982;51.476;7.552;2023-07-13T01:07:38;6.00;;;1.80;;
68940;SDS011;55982;51.476;7.552;2023-07-13T01:10:05;6.65;;;1.85;;
68940;SDS011;55982;51.476;7.552;2023-07-13T01:12:32;9.32;;;1.70;;
68940;SDS011;55982;51.476;7.552;2023-07-13T01:15:01;5.72;;;1.70;;
68940;SDS011;55982;51.476;7.552;2023-07-13T01:17:28;4.50;;;1.90;;
68940;SDS011;55982;51.476;7.552;2023-07-13T01:19:54;10.30;;;2.13;;
68940;SDS011;55982;51.476;7.552;2023-07-13T01:22:20;9.10;;;1.85;;
68940;SDS011;55982;51.476;7.552;2023-07-13T01:24:51;6.97;;;1.88;;
68940;SDS011;55982;51.476;7.552;2023-07-13T01:27:21;8.18;;;2.30;;
68940;SDS011;55982;51.476;7.552;2023-07-13T01:29:50;7.38;;;2.28;;
68940;SDS011;55982;51.476;7.552;2023-07-13T01:32:20;8.30;;;2.35;;
68940;SDS011;55982;51.476;7.552;2023-07-13T01:34:49;7.32;;;2.08;;
68940;SDS011;55982;51.476;7.552;2023-07-13T01:37:15;10.35;;;2.03;;
68940;SDS011;55982;51.476;7.552;2023-07-13T01:39:40;7.97;;;1.77;;
68940;SDS011;55982;51.476;7.552;2023-07-13T01:42:06;7.45;;;1.95;;
68940;SDS011;55982;51.476;7.552;2023-07-13T01:44:31;4.60;;;1.60;;
68940;SDS011;55982;51.476;7.552;2023-07-13T01:46:57;5.53;;;1.95;;
68940;SDS011;55982;51.476;7.552;2023-07-13T01:49:22;11.77;;;1.70;;
68940;SDS011;55982;51.476;7.552;2023-07-13T01:51:47;5.35;;;1.92;;
68940;SDS011;55982;51.476;7.552;2023-07-13T01:54:13;5.50;;;2.08;;
68940;SDS011;55982;51.476;7.552;2023-07-13T01:56:38;8.35;;;1.83;;
68940;SDS011;55982;51.476;7.552;2023-07-13T01:59:04;6.93;;;2.10;;
68940;SDS011;55982;51.476;7.552;2023-07-13T02:01:30;4.63;;;1.60;;
68940;SDS011;55982;51.476;7.552;2023-07-13T02:03:55;6.50;;;1.67;;
68940;SDS011;55982;51.476;7.552;2023-07-13T02:06:20;5.45;;;2.08;;
68940;SDS011;55982;51.476;7.552;2023-07-13T02:08:46;4.95;;;1.80;;
68940;SDS011;55982;51.476;7.552;2023-07-13T02:11:11;7.82;;;1.85;;
68940;SDS011;55982;51.476;7.552;2023-07-13T02:13:37;5.20;;;2.10;;
68940;SDS011;55982;51.476;7.552;2023-07-13T02:16:02;5.45;;;1.60;;
68940;SDS011;55982;51.476;7.552;2023-07-13T02:18:28;4.72;;;1.83;;
68940;SDS011;55982;51.476;7.552;2023-07-13T02:20:53;8.27;;;1.85;;
68940;SDS011;55982;51.476;7.552;2023-07-13T02:23:18;6.03;;;1.77;;
68940;SDS011;55982;51.476;7.552;2023-07-13T02:25:44;4.50;;;1.45;;
68940;SDS011;55982;51.476;7.552;2023-07-13T02:28:10;9.38;;;2.15;;
68940;SDS011;55982;51.476;7.552;2023-07-13T02:30:35;6.88;;;1.85;;
68940;SDS011;55982;51.476;7.552;2023-07-13T02:33:01;5.03;;;2.03;;
68940;SDS011;55982;51.476;7.552;2023-07-13T02:35:26;5.45;;;1.95;;
68940;SDS011;55982;51.476;7.552;2023-07-13T02:37:52;4.82;;;1.73;;
68940;SDS011;55982;51.476;7.552;2023-07-13T02:40:17;10.45;;;2.20;;
68940;SDS011;55982;51.476;7.552;2023-07-13T02:42:42;6.45;;;2.10;;
68940;SDS011;55982;51.476;7.552;2023-07-13T02:45:08;6.85;;;1.85;;
68940;SDS011;55982;51.476;7.552;2023-07-13T02:47:34;10.95;;;1.92;;
68940;SDS011;55982;51.476;7.552;2023-07-13T02:50:00;7.90;;;1.90;;
68940;SDS011;55982;51.476;7.552;2023-07-13T02:52:26;6.13;;;1.70;;
68940;SDS011;55982;51.476;7.552;2023-07-13T02:54:51;5.15;;;1.55;;
68940;SDS011;55982;51.476;7.552;2023-07-13T02:57:17;10.05;;;1.92;;
68940;SDS011;55982;51.476;7.552;2023-07-13T02:59:42;6.18;;;2.03;;
68940;SDS011;55982;51.476;7.552;2023-07-13T03:02:07;9.02;;;2.00;;
68940;SDS011;55982;51.476;7.552;2023-07-13T03:04:35;6.95;;;1.80;;
68940;SDS011;55982;51.476;7.552;2023-07-13T03:07:00;8.32;;;2.20;;
68940;SDS011;55982;51.476;7.552;2023-07-13T03:09:26;10.85;;;2.10;;
68940;SDS011;55982;51.476;7.552;2023-07-13T03:11:52;3.85;;;1.45;;
68940;SDS011;55982;51.476;7.552;2023-07-13T03:14:24;10.73;;;2.00;;
68940;SDS011;55982;51.476;7.552;2023-07-13T03:16:49;4.72;;;2.08;;
68940;SDS011;55982;51.476;7.552;2023-07-13T03:19:16;7.30;;;2.03;;
68940;SDS011;55982;51.476;7.552;2023-07-13T03:21:42;3.90;;;1.83;;
68940;SDS011;55982;51.476;7.552;2023-07-13T03:24:07;7.68;;;1.90;;
68940;SDS011;55982;51.476;7.552;2023-07-13T03:26:33;7.55;;;1.95;;
68940;SDS011;55982;51.476;7.552;2023-07-13T03:28:58;4.88;;;1.95;;
68940;SDS011;55982;51.476;7.552;2023-07-13T03:31:28;5.72;;;2.60;;
68940;SDS011;55982;51.476;7.552;2023-07-13T03:33:54;11.80;;;3.33;;
68940;SDS011;55982;51.476;7.552;2023-07-13T03:36:21;4.32;;;1.95;;
68940;SDS011;55982;51.476;7.552;2023-07-13T03:38:50;5.55;;;1.77;;
68940;SDS011;55982;51.476;7.552;2023-07-13T03:41:18;5.95;;;2.20;;
68940;SDS011;55982;51.476;7.552;2023-07-13T03:43:43;4.80;;;2.10;;
68940;SDS011;55982;51.476;7.552;2023-07-13T03:46:09;10.30;;;2.58;;
68940;SDS011;55982;51.476;7.552;2023-07-13T03:48:35;9.60;;;2.13;;
68940;SDS011;55982;51.476;7.552;2023-07-13T03:51:00;9.18;;;2.13;;
68940;SDS011;55982;51.476;7.552;2023-07-13T03:53:26;6.80;;;2.03;;
68940;SDS011;55982;51.476;7.552;2023-07-13T03:55:51;4.78;;;1.63;;
68940;SDS011;55982;51.476;7.552;2023-07-13T03:58:23;7.75;;;2.05;;
68940;SDS011;55982;51.476;7.552;2023-07-13T04:00:51;6.18;;;1.85;;
68940;SDS011;55982;51.476;7.552;2023-07-13T04:03:17;7.30;;;2.10;;
68940;SDS011;55982;51.476;7.552;2023-07-13T04:05:42;7.40;;;1.75;;
68940;SDS011;55982;51.476;7.552;2023-07-13T04:08:08;5.32;;;2.25;;
68940;SDS011;55982;51.476;7.552;2023-07-13T04:10:33;13.07;;;2.20;;
68940;SDS011;55982;51.476;7.552;2023-07-13T04:12:58;6.07;;;2.13;;
68940;SDS011;55982;51.476;7.552;2023-07-13T04:15:23;6.72;;;2.17;;
68940;SDS011;55982;51.476;7.552;2023-07-13T04:17:49;5.68;;;1.90;;
68940;SDS011;55982;51.476;7.552;2023-07-13T04:20:14;4.15;;;1.73;;
68940;SDS011;55982;51.476;7.552;2023-07-13T04:22:39;7.05;;;2.10;;
68940;SDS011;55982;51.476;7.552;2023-07-13T04:25:05;5.00;;;1.75;;
68940;SDS011;55982;51.476;7.552;2023-07-13T04:27:31;7.75;;;2.20;;
68940;SDS011;55982;51.476;7.552;2023-07-13T04:29:56;11.05;;;2.40;;
68940;SDS011;55982;51.476;7.552;2023-07-13T04:32:21;6.72;;;2.00;;
68940;SDS011;55982;51.476;7.552;2023-07-13T04:34:47;3.05;;;1.75;;
68940;SDS011;55982;51.476;7.552;2023-07-13T04:37:12;6.38;;;1.92;;
68940;SDS011;55982;51.476;7.552;2023-07-13T04:39:37;10.43;;;2.08;;
68940;SDS011;55982;51.476;7.552;2023-07-13T04:42:03;4.40;;;2.03;;
68940;SDS011;55982;51.476;7.552;2023-07-13T04:44:29;10.75;;;2.05;;
68940;SDS011;55982;51.476;7.552;2023-07-13T04:46:54;9.05;;;2.03;;
68940;SDS011;55982;51.476;7.552;2023-07-13T04:49:19;7.40;;;1.95;;
68940;SDS011;55982;51.476;7.552;2023-07-13T04:51:45;6.32;;;2.10;;
68940;SDS011;55982;51.476;7.552;2023-07-13T04:54:10;10.63;;;2.50;;
68940;SDS011;55982;51.476;7.552;2023-07-13T04:56:36;8.77;;;2.17;;
68940;SDS011;55982;51.476;7.552;2023-07-13T04:59:01;7.53;;;1.90;;
68940;SDS011;55982;51.476;7.552;2023-07-13T05:01:27;6.78;;;1.83;;
68940;SDS011;55982;51.476;7.552;2023-07-13T05:03:52;5.65;;;1.95;;
68940;SDS011;55982;51.476;7.552;2023-07-13T05:06:17;9.95;;;2.08;;
68940;SDS011;55982;51.476;7.552;2023-07-13T05:08:43;6.05;;;1.85;;
68940;SDS011;55982;51.476;7.552;2023-07-13T05:11:08;7.10;;;2.20;;
68940;SDS011;55982;51.476;7.552;2023-07-13T05:13:33;7.85;;;2.10;;
68940;SDS011;55982;51.476;7.552;2023-07-13T05:16:00;6.85;;;1.65;;
68940;SDS011;55982;51.476;7.552;2023-07-13T05:18:27;6.35;;;1.60;;
68940;SDS011;55982;51.476;7.552;2023-07-13T05:21:03;6.47;;;1.92;;
68940;SDS011;55982;51.476;7.552;2023-07-13T05:23:31;5.20;;;1.98;;
68940;SDS011;55982;51.476;7.552;2023-07-13T05:25:57;5.47;;;2.20;;
68940;SDS011;55982;51.476;7.552;2023-07-13T05:28:23;5.78;;;1.98;;
68940;SDS011;55982;51.476;7.552;2023-07-13T05:30:49;7.28;;;2.28;;
68940;SDS011;55982;51.476;7.552;2023-07-13T05:33:15;8.43;;;2.25;;
68940;SDS011;55982;51.476;7.552;2023-07-13T05:35:40;8.32;;;2.40;;
68940;SDS011;55982;51.476;7.552;2023-07-13T05:38:06;6.43;;;2.25;;
68940;SDS011;55982;51.476;7.552;2023-07-13T05:40:31;6.07;;;2.30;;
68940;SDS011;55982;51.476;7.552;2023-07-13T05:42:57;7.38;;;2.38;;
68940;SDS011;55982;51.476;7.552;2023-07-13T05:45:22;8.20;;;2.38;;
68940;SDS011;55982;51.476;7.552;2023-07-13T05:47:47;5.75;;;2.53;;
68940;SDS011;55982;51.476;7.552;2023-07-13T05:50:13;9.27;;;2.33;;
68940;SDS011;55982;51.476;7.552;2023-07-13T05:52:38;10.30;;;2.40;;
68940;SDS011;55982;51.476;7.552;2023-07-13T05:55:04;8.60;;;2.90;;
68940;SDS011;55982;51.476;7.552;2023-07-13T05:57:30;8.27;;;2.50;;
68940;SDS011;55982;51.476;7.552;2023-07-13T05:59:55;7.65;;;2.85;;
68940;SDS011;55982;51.476;7.552;2023-07-13T06:02:21;7.50;;;2.50;;
68940;SDS011;55982;51.476;7.552;2023-07-13T06:04:46;5.20;;;2.55;;
68940;SDS011;55982;51.476;7.552;2023-07-13T06:07:11;9.95;;;2.60;;
68940;SDS011;55982;51.476;7.552;2023-07-13T06:09:37;8.90;;;3.00;;
68940;SDS011;55982;51.476;7.552;2023-07-13T06:12:03;13.60;;;3.90;;
68940;SDS011;55982;51.476;7.552;2023-07-13T06:14:29;9.23;;;3.05;;
68940;SDS011;55982;51.476;7.552;2023-07-13T06:16:54;9.98;;;3.05;;
68940;SDS011;55982;51.476;7.552;2023-07-13T06:19:20;7.82;;;3.67;;
68940;SDS011;55982;51.476;7.552;2023-07-13T06:21:45;13.43;;;3.60;;
68940;SDS011;55982;51.476;7.552;2023-07-13T06:24:10;11.68;;;3.70;;
68940;SDS011;55982;51.476;7.552;2023-07-13T06:26:36;11.98;;;3.53;;
68940;SDS011;55982;51.476;7.552;2023-07-13T06:29:01;10.60;;;3.75;;
68940;SDS011;55982;51.476;7.552;2023-07-13T06:31:26;10.65;;;3.50;;
68940;SDS011;55982;51.476;7.552;2023-07-13T06:33:52;9.45;;;3.78;;
68940;SDS011;55982;51.476;7.552;2023-07-13T06:36:17;9.95;;;3.95;;
68940;SDS011;55982;51.476;7.552;2023-07-13T06:38:42;7.85;;;3.45;;
68940;SDS011;55982;51.476;7.552;2023-07-13T06:41:08;8.30;;;3.13;;
68940;SDS011;55982;51.476;7.552;2023-07-13T06:43:33;5.90;;;2.80;;
68940;SDS011;55982;51.476;7.552;2023-07-13T06:45:59;8.88;;;3.72;;
68940;SDS011;55982;51.476;7.552;2023-07-13T06:48:26;7.70;;;3.50;;
68940;SDS011;55982;51.476;7.552;2023-07-13T06:50:51;9.55;;;3.17;;
68940;SDS011;55982;51.476;7.552;2023-07-13T06:53:18;11.15;;;2.95;;
68940;SDS011;55982;51.476;7.552;2023-07-13T06:55:44;10.73;;;3.83;;
68940;SDS011;55982;51.476;7.552;2023-07-13T06:58:10;10.38;;;3.53;;
68940;SDS011;55982;51.476;7.552;2023-07-13T07:00:35;10.18;;;3.40;;
68940;SDS011;55982;51.476;7.552;2023-07-13T07:03:01;13.57;;;3.47;;
68940;SDS011;55982;51.476;7.552;2023-07-13T07:05:26;8.13;;;3.00;;
68940;SDS011;55982;51.476;7.552;2023-07-13T07:07:52;9.35;;;3.25;;
68940;SDS011;55982;51.476;7.552;2023-07-13T07:10:19;9.75;;;3.58;;
68940;SDS011;55982;51.476;7.552;2023-07-13T07:12:45;7.05;;;2.85;;
68940;SDS011;55982;51.476;7.552;2023-07-13T07:15:10;11.90;;;3.35;;
68940;SDS011;55982;51.476;7.552;2023-07-13T07:17:36;8.55;;;3.17;;
68940;SDS011;55982;51.476;7.552;2023-07-13T07:20:01;7.63;;;2.83;;
68940;SDS011;55982;51.476;7.552;2023-07-13T07:22:28;7.85;;;2.90;;
68940;SDS011;55982;51.476;7.552;2023-07-13T07:24:55;8.45;;;2.88;;
68940;SDS011;55982;51.476;7.552;2023-07-13T07:27:21;9.55;;;3.08;;
68940;SDS011;55982;51.476;7.552;2023-07-13T07:29:47;8.07;;;2.60;;
68940;SDS011;55982;51.476;7.552;2023-07-13T07:32:12;7.40;;;2.75;;
68940;SDS011;55982;51.476;7.552;2023-07-13T07:34:37;7.78;;;2.58;;
68940;SDS011;55982;51.476;7.552;2023-07-13T07:37:03;6.95;;;2.38;;
68940;SDS011;55982;51.476;7.552;2023-07-13T07:39:29;8.10;;;2.47;;
68940;SDS011;55982;51.476;7.552;2023-07-13T07:41:54;7.85;;;2.75;;
68940;SDS011;55982;51.476;7.552;2023-07-13T07:44:20;6.72;;;2.60;;
68940;SDS011;55982;51.476;7.552;2023-07-13T07:46:45;6.63;;;2.55;;
68940;SDS011;55982;51.476;7.552;2023-07-13T07:49:11;7.30;;;2.38;;
68940;SDS011;55982;51.476;7.552;2023-07-13T07:51:36;8.27;;;2.30;;
68940;SDS011;55982;51.476;7.552;2023-07-13T07:54:03;6.65;;;2.58;;
68940;SDS011;55982;51.476;7.552;2023-07-13T07:56:29;7.13;;;2.58;;
68940;SDS011;55982;51.476;7.552;2023-07-13T07:58:54;12.15;;;2.45;;
68940;SDS011;55982;51.476;7.552;2023-07-13T08:01:20;5.65;;;2.70;;
68940;SDS011;55982;51.476;7.552;2023-07-13T08:03:45;6.18;;;1.98;;
68940;SDS011;55982;51.476;7.552;2023-07-13T08:06:11;6.38;;;2.15;;
68940;SDS011;55982;51.476;7.552;2023-07-13T08:08:36;7.82;;;2.22;;
68940;SDS011;55982;51.476;7.552;2023-07-13T08:11:03;6.03;;;1.95;;
68940;SDS011;55982;51.476;7.552;2023-07-13T08:13:29;6.25;;;2.03;;
68940;SDS011;55982;51.476;7.552;2023-07-13T08:15:55;6.28;;;2.30;;
68940;SDS011;55982;51.476;7.552;2023-07-13T08:18:20;8.95;;;2.65;;
68940;SDS011;55982;51.476;7.552;2023-07-13T08:20:45;6.13;;;2.03;;
68940;SDS011;55982;51.476;7.552;2023-07-13T08:23:11;5.80;;;2.15;;
68940;SDS011;55982;51.476;7.552;2023-07-13T08:25:36;9.43;;;2.40;;
68940;SDS011;55982;51.476;7.552;2023-07-13T08:28:02;7.78;;;2.50;;
68940;SDS011;55982;51.476;7.552;2023-07-13T08:30:28;10.02;;;2.70;;
68940;SDS011;55982;51.476;7.552;2023-07-13T08:32:54;7.60;;;2.40;;
68940;SDS011;55982;51.476;7.552;2023-07-13T08:35:19;7.85;;;2.40;;
68940;SDS011;55982;51.476;7.552;2023-07-13T08:37:45;7.93;;;2.38;;
68940;SDS011;55982;51.476;7.552;2023-07-13T08:40:10;11.52;;;2.60;;
68940;SDS011;55982;51.476;7.552;2023-07-13T08:42:42;7.85;;;2.25;;
68940;SDS011;55982;51.476;7.552;2023-07-13T08:47:53;6.93;;;2.45;;
68940;SDS011;55982;51.476;7.552;2023-07-13T08:50:23;3.17;;;1.70;;
68940;SDS011;55982;51.476;7.552;2023-07-13T08:52:52;5.45;;;2.10;;
68940;SDS011;55982;51.476;7.552;2023-07-13T08:55:30;6.57;;;2.00;;
68940;SDS011;55982;51.476;7.552;2023-07-13T08:58:22;7.22;;;3.10;;
68940;SDS011;55982;51.476;7.552;2023-07-13T09:03:26;5.13;;;2.08;;
68940;SDS011;55982;51.476;7.552;2023-07-13T09:05:57;7.75;;;3.05;;
68940;SDS011;55982;51.476;7.552;2023-07-13T09:11:23;5.45;;;2.22;;
68940;SDS011;55982;51.476;7.552;2023-07-13T09:14:58;5.68;;;1.90;;
68940;SDS011;55982;51.476;7.552;2023-07-13T09:17:03;4.30;;;1.92;;
68940;SDS011;55982;51.476;7.552;2023-07-13T09:19:31;5.55;;;1.70;;
68940;SDS011;55982;51.476;7.552;2023-07-13T09:22:00;4.07;;;1.85;;
68940;SDS011;55982;51.476;7.552;2023-07-13T09:24:33;5.53;;;1.63;;
68940;SDS011;55982;51.476;7.552;2023-07-13T09:27:11;4.85;;;1.75;;
68940;SDS011;55982;51.476;7.552;2023-07-13T09:29:42;4.20;;;2.13;;
68940;SDS011;55982;51.476;7.552;2023-07-13T09:32:14;7.93;;;1.90;;
68940;SDS011;55982;51.476;7.552;2023-07-13T09:34:46;5.05;;;1.80;;
68940;SDS011;55982;51.476;7.552;2023-07-13T09:37:16;6.35;;;2.10;;
68940;SDS011;55982;51.476;7.552;2023-07-13T09:39:41;5.97;;;1.98;;
68940;SDS011;55982;51.476;7.552;2023-07-13T09:44:34;7.00;;;1.88;;
68940;SDS011;55982;51.476;7.552;2023-07-13T09:47:01;7.43;;;2.20;;
68940;SDS011;55982;51.476;7.552;2023-07-13T09:49:34;4.85;;;2.20;;
68940;SDS011;55982;51.476;7.552;2023-07-13T09:52:05;5.82;;;2.25;;
68940;SDS011;55982;51.476;7.552;2023-07-13T09:54:35;6.50;;;2.08;;
68940;SDS011;55982;51.476;7.552;2023-07-13T09:57:02;4.95;;;2.00;;
68940;SDS011;55982;51.476;7.552;2023-07-13T09:59:43;8.13;;;2.10;;
68940;SDS011;55982;51.476;7.552;2023-07-13T10:02:30;4.57;;;1.98;;
68940;SDS011;55982;51.476;7.552;2023-07-13T10:07:32;4.90;;;1.90;;
68940;SDS011;55982;51.476;7.552;2023-07-13T10:10:12;5.97;;;1.95;;
68940;SDS011;55982;51.476;7.552;2023-07-13T10:12:41;5.68;;;1.63;;
68940;SDS011;55982;51.476;7.552;2023-07-13T10:15:13;4.22;;;1.70;;
68940;SDS011;55982;51.476;7.552;2023-07-13T10:17:43;5.68;;;1.80;;
68940;SDS011;55982;51.476;7.552;2023-07-13T10:20:09;5.68;;;2.15;;
68940;SDS011;55982;51.476;7.552;2023-07-13T10:25:25;3.95;;;2.10;;
68940;SDS011;55982;51.476;7.552;2023-07-13T10:27:54;4.90;;;2.15;;
68940;SDS011;55982;51.476;7.552;2023-07-13T10:30:31;6.15;;;1.98;;
68940;SDS011;55982;51.476;7.552;2023-07-13T10:33:04;6.78;;;1.80;;
68940;SDS011;55982;51.476;7.552;2023-07-13T10:35:35;8.05;;;2.20;;
68940;SDS011;55982;51.476;7.552;2023-07-13T10:38:06;5.05;;;2.10;;
68940;SDS011;55982;51.476;7.552;2023-07-13T10:40:37;5.75;;;2.40;;
68940;SDS011;55982;51.476;7.552;2023-07-13T10:43:33;9.38;;;2.50;;
68940;SDS011;55982;51.476;7.552;2023-07-13T10:46:10;6.97;;;2.40;;
68940;SDS011;55982;51.476;7.552;2023-07-13T10:48:37;7.43;;;2.42;;
68940;SDS011;55982;51.476;7.552;2023-07-13T10:51:05;6.65;;;1.90;;
68940;SDS011;55982;51.476;7.552;2023-07-13T10:53:35;5.88;;;2.10;;
68940;SDS011;55982;51.476;7.552;2023-07-13T10:56:03;7.10;;;2.25;;
68940;SDS011;55982;51.476;7.552;2023-07-13T10:58:39;4.22;;;1.88;;
68940;SDS011;55982;51.476;7.552;2023-07-13T11:03:35;4.18;;;1.80;;
68940;SDS011;55982;51.476;7.552;2023-07-13T11:18:45;6.75;;;2.20;;
68940;SDS011;55982;51.476;7.552;2023-07-13T11:21:14;5.25;;;2.03;;
68940;SDS011;55982;51.476;7.552;2023-07-13T11:23:42;4.60;;;1.80;;
68940;SDS011;55982;51.476;7.552;2023-07-13T11:27:10;5.93;;;2.38;;
68940;SDS011;55982;51.476;7.552;2023-07-13T11:29:08;6.45;;;2.10;;
68940;SDS011;55982;51.476;7.552;2023-07-13T11:31:56;6.57;;;2.63;;
68940;SDS011;55982;51.476;7.552;2023-07-13T11:34:25;4.97;;;2.17;;
68940;SDS011;55982;51.476;7.552;2023-07-13T11:36:54;5.13;;;1.60;;
68940;SDS011;55982;51.476;7.552;2023-07-13T11:39:35;5.10;;;2.03;;
68940;SDS011;55982;51.476;7.552;2023-07-13T11:42:03;4.47;;;1.90;;
68940;SDS011;55982;51.476;7.552;2023-07-13T11:44:33;4.22;;;2.10;;
68940;SDS011;55982;51.476;7.552;2023-07-13T11:47:00;4.78;;;1.95;;
68940;SDS011;55982;51.476;7.552;2023-07-13T11:49:41;5.75;;;2.00;;
68940;SDS011;55982;51.476;7.552;2023-07-13T11:52:11;4.25;;;1.58;;
68940;SDS011;55982;51.476;7.552;2023-07-13T11:54:51;3.25;;;1.50;;
68940;SDS011;55982;51.476;7.552;2023-07-13T11:57:33;5.80;;;1.73;;
68940;SDS011;55982;51.476;7.552;2023-07-13T12:00:13;5.25;;;1.88;;
68940;SDS011;55982;51.476;7.552;2023-07-13T12:02:45;3.42;;;1.60;;
68940;SDS011;55982;51.476;7.552;2023-07-13T12:05:14;5.97;;;2.28;;
68940;SDS011;55982;51.476;7.552;2023-07-13T12:07:48;3.65;;;1.35;;
68940;SDS011;55982;51.476;7.552;2023-07-13T12:15:21;5.38;;;1.77;;
68940;SDS011;55982;51.476;7.552;2023-07-13T12:17:49;5.32;;;1.88;;
68940;SDS011;55982;51.476;7.552;2023-07-13T12:20:22;4.65;;;1.65;;
68940;SDS011;55982;51.476;7.552;2023-07-13T12:22:50;4.10;;;1.77;;
68940;SDS011;55982;51.476;7.552;2023-07-13T12:25:16;6.47;;;2.17;;
68940;SDS011;55982;51.476;7.552;2023-07-13T12:27:46;3.85;;;1.67;;
68940;SDS011;55982;51.476;7.552;2023-07-13T12:30:25;3.45;;;1.52;;
68940;SDS011;55982;51.476;7.552;2023-07-13T12:35:44;4.80;;;1.52;;
68940;SDS011;55982;51.476;7.552;2023-07-13T12:38:12;3.45;;;1.38;;
68940;SDS011;55982;51.476;7.552;2023-07-13T12:40:38;3.47;;;1.50;;
68940;SDS011;55982;51.476;7.552;2023-07-13T12:43:09;3.60;;;1.60;;
68940;SDS011;55982;51.476;7.552;2023-07-13T12:45:37;3.90;;;1.70;;
68940;SDS011;55982;51.476;7.552;2023-07-13T12:48:04;4.13;;;1.77;;
68940;SDS011;55982;51.476;7.552;2023-07-13T12:50:39;4.65;;;1.90;;
68940;SDS011;55982;51.476;7.552;2023-07-13T12:53:06;6.75;;;1.75;;
68940;SDS011;55982;51.476;7.552;2023-07-13T12:55:42;6.65;;;1.67;;
68940;SDS011;55982;51.476;7.552;2023-07-13T12:58:26;3.60;;;1.63;;
68940;SDS011;55982;51.476;7.552;2023-07-13T13:00:57;4.60;;;1.63;;
68940;SDS011;55982;51.476;7.552;2023-07-13T13:03:34;3.67;;;1.67;;
68940;SDS011;55982;51.476;7.552;2023-07-13T13:06:03;2.75;;;1.58;;
68940;SDS011;55982;51.476;7.552;2023-07-13T13:08:32;4.25;;;1.40;;
68940;SDS011;55982;51.476;7.552;2023-07-13T13:10:59;4.70;;;1.60;;
68940;SDS011;55982;51.476;7.552;2023-07-13T13:13:24;4.43;;;1.58;;
68940;SDS011;55982;51.476;7.552;2023-07-13T13:15:50;5.65;;;1.85;;
68940;SDS011;55982;51.476;7.552;2023-07-13T13:18:19;3.78;;;1.48;;
68940;SDS011;55982;51.476;7.552;2023-07-13T13:20:46;4.68;;;2.10;;
68940;SDS011;55982;51.476;7.552;2023-07-13T13:23:14;4.30;;;1.42;;
68940;SDS011;55982;51.476;7.552;2023-07-13T13:25:42;3.80;;;1.50;;
68940;SDS011;55982;51.476;7.552;2023-07-13T13:28:13;5.82;;;1.80;;
68940;SDS011;55982;51.476;7.552;2023-07-13T13:30:43;5.30;;;1.70;;
68940;SDS011;55982;51.476;7.552;2023-07-13T13:33:10;5.25;;;1.80;;
68940;SDS011;55982;51.476;7.552;2023-07-13T13:35:37;5.15;;;1.77;;
68940;SDS011;55982;51.476;7.552;2023-07-13T13:38:08;5.07;;;1.60;;
68940;SDS011;55982;51.476;7.552;2023-07-13T13:40:36;3.17;;;1.35;;
68940;SDS011;55982;51.476;7.552;2023-07-13T13:43:01;4.03;;;1.60;;
68940;SDS011;55982;51.476;7.552;2023-07-13T13:45:26;3.90;;;1.73;;
68940;SDS011;55982;51.476;7.552;2023-07-13T13:47:52;8.40;;;1.77;;
68940;SDS011;55982;51.476;7.552;2023-07-13T13:50:19;3.08;;;1.55;;
68940;SDS011;55982;51.476;7.552;2023-07-13T13:52:47;5.47;;;2.03;;
68940;SDS011;55982;51.476;7.552;2023-07-13T13:55:17;11.25;;;3.38;;
68940;SDS011;55982;51.476;7.552;2023-07-13T13:57:47;7.68;;;2.55;;
68940;SDS011;55982;51.476;7.552;2023-07-13T14:00:14;12.02;;;3.30;;
68940;SDS011;55982;51.476;7.552;2023-07-13T14:02:42;15.02;;;5.35;;
68940;SDS011;55982;51.476;7.552;2023-07-13T14:05:13;13.25;;;5.72;;
68940;SDS011;55982;51.476;7.552;2023-07-13T14:07:40;7.50;;;4.70;;
68940;SDS011;55982;51.476;7.552;2023-07-13T14:10:13;8.15;;;4.63;;
68940;SDS011;55982;51.476;7.552;2023-07-13T14:12:47;8.23;;;4.97;;
68940;SDS011;55982;51.476;7.552;2023-07-13T14:15:23;7.32;;;5.28;;
68940;SDS011;55982;51.476;7.552;2023-07-13T14:17:51;9.40;;;4.78;;
68940;SDS011;55982;51.476;7.552;2023-07-13T14:20:19;9.43;;;5.80;;
68940;SDS011;55982;51.476;7.552;2023-07-13T14:22:47;10.75;;;5.18;;
68940;SDS011;55982;51.476;7.552;2023-07-13T14:25:14;9.18;;;4.75;;
68940;SDS011;55982;51.476;7.552;2023-07-13T14:27:41;9.25;;;4.43;;
68940;SDS011;55982;51.476;7.552;2023-07-13T14:30:15;8.60;;;3.33;;
68940;SDS011;55982;51.476;7.552;2023-07-13T14:32:43;4.85;;;2.90;;
68940;SDS011;55982;51.476;7.552;2023-07-13T14:35:12;5.43;;;3.30;;
68940;SDS011;55982;51.476;7.552;2023-07-13T14:37:39;7.82;;;4.15;;
68940;SDS011;55982;51.476;7.552;2023-07-13T14:40:12;5.20;;;2.80;;
68940;SDS011;55982;51.476;7.552;2023-07-13T14:42:38;6.53;;;3.08;;
68940;SDS011;55982;51.476;7.552;2023-07-13T14:45:03;5.07;;;2.92;;
68940;SDS011;55982;51.476;7.552;2023-07-13T14:47:29;6.50;;;3.00;;
68940;SDS011;55982;51.476;7.552;2023-07-13T14:49:55;4.32;;;2.55;;
68940;SDS011;55982;51.476;7.552;2023-07-13T14:52:21;4.30;;;2.90;;
68940;SDS011;55982;51.476;7.552;2023-07-13T14:54:49;6.05;;;3.22;;
68940;SDS011;55982;51.476;7.552;2023-07-13T14:57:19;6.47;;;3.35;;
68940;SDS011;55982;51.476;7.552;2023-07-13T14:59:45;12.45;;;3.50;;
68940;SDS011;55982;51.476;7.552;2023-07-13T15:02:33;6.63;;;3.92;;
68940;SDS011;55982;51.476;7.552;2023-07-13T15:05:05;10.25;;;4.55;;
68940;SDS011;55982;51.476;7.552;2023-07-13T15:07:37;15.13;;;6.40;;
68940;SDS011;55982;51.476;7.552;2023-07-13T15:10:04;12.07;;;6.38;;
68940;SDS011;55982;51.476;7.552;2023-07-13T15:12:39;14.52;;;6.80;;
68940;SDS011;55982;51.476;7.552;2023-07-13T15:15:04;11.75;;;6.97;;
68940;SDS011;55982;51.476;7.552;2023-07-13T15:17:35;11.63;;;6.70;;
68940;SDS011;55982;51.476;7.552;2023-07-13T15:20:03;8.23;;;5.90;;
68940;SDS011;55982;51.476;7.552;2023-07-13T15:22:36;9.43;;;7.25;;
68940;SDS011;55982;51.476;7.552;2023-07-13T15:25:01;11.68;;;5.90;;
68940;SDS011;55982;51.476;7.552;2023-07-13T15:27:28;6.22;;;4.40;;
68940;SDS011;55982;51.476;7.552;2023-07-13T15:29:54;7.32;;;4.20;;
68940;SDS011;55982;51.476;7.552;2023-07-13T15:32:19;9.07;;;3.70;;